sensor_id;sensor_type;location;lat;lon;timestamp;temperature;humidity
37322;DHT22;23697;48.684;9.032;2023-05-29T02:31:03;11.40;78.30
37322;DHT22;23697;48.684;9.032;2023-05-29T02:33:55;11.30;78.10
37322;DHT22;23697;48.684;9.032;2023-05-29T02:36:46;11.30;78.20
37322;DHT22;23697;48.684;9.032;2023-05-29T02:39:28;11.20;78.30
37322;DHT22;23697;48.684;9.032;2023-05-29T02:42:22;11.20;78.30
37322;DHT22;23697;48.684;9.032;2023-05-29T02:45:22;11.20;78.70
37322;DHT22;23697;48.684;9.032;2023-05-29T03:08:31;11.00;78.90
37322;DHT22;23697;48.684;9.032;2023-05-29T03:17:12;10.90;79.40
37322;DHT22;23697;48.684;9.032;2023-05-29T03:21:18;10.90;79.30
37322;DHT22;23697;48.684;9.032;2023-05-29T03:25:47;10.80;79.40
37322;DHT22;23697;48.684;9.032;2023-05-29T03:29:35;10.80;79.30
37322;DHT22;23697;48.684;9.032;2023-05-29T03:48:31;10.70;80.00
37322;DHT22;23697;48.684;9.032;2023-05-29T03:54:12;10.70;79.60
37322;DHT22;23697;48.684;9.032;2023-05-29T04:06:08;10.60;80.30
37322;DHT22;23697;48.684;9.032;2023-05-29T04:08:54;10.60;80.30
37322;DHT22;23697;48.684;9.032;2023-05-29T04:11:50;10.60;80.30
37322;DHT22;23697;48.684;9.032;2023-05-29T04:17:20;10.60;80.60
37322;DHT22;23697;48.684;9.032;2023-05-29T04:19:52;10.50;80.80
37322;DHT22;23697;48.684;9.032;2023-05-29T04:28:17;10.60;81.00
37322;DHT22;23697;48.684;9.032;2023-05-29T04:31:02;10.70;81.10
37322;DHT22;23697;48.684;9.032;2023-05-29T04:33:57;10.70;81.00
37322;DHT22;23697;48.684;9.032;2023-05-29T04:36:37;10.70;80.80
37322;DHT22;23697;48.684;9.032;2023-05-29T04:42:26;10.80;81.10
37322;DHT22;23697;48.684;9.032;2023-05-29T04:45:11;10.90;81.30
37322;DHT22;23697;48.684;9.032;2023-05-29T04:52:10;11.00;81.20
37322;DHT22;23697;48.684;9.032;2023-05-29T06:20:42;13.90;75.60
37322;DHT22;23697;48.684;9.032;2023-05-29T06:23:09;14.00;74.70
37322;DHT22;23697;48.684;9.032;2023-05-29T06:25:36;14.10;74.60
37322;DHT22;23697;48.684;9.032;2023-05-29T06:28:02;14.30;73.80
37322;DHT22;23697;48.684;9.032;2023-05-29T06:30:31;14.40;73.60
37322;DHT22;23697;48.684;9.032;2023-05-29T06:32:58;14.60;73.80
37322;DHT22;23697;48.684;9.032;2023-05-29T06:35:24;14.80;72.20
37322;DHT22;23697;48.684;9.032;2023-05-29T06:38:06;15.00;72.90
37322;DHT22;23697;48.684;9.032;2023-05-29T06:40:33;15.10;73.40
37322;DHT22;23697;48.684;9.032;2023-05-29T06:42:59;15.30;73.10
37322;DHT22;23697;48.684;9.032;2023-05-29T06:45:26;15.50;72.80
37322;DHT22;23697;48.684;9.032;2023-05-29T06:47:55;15.60;71.90
37322;DHT22;23697;48.684;9.032;2023-05-29T06:50:22;15.80;71.20
37322;DHT22;23697;48.684;9.032;2023-05-29T06:52:48;16.00;71.10
37322;DHT22;23697;48.684;9.032;2023-05-29T06:55:16;16.10;69.80
37322;DHT22;23697;48.684;9.032;2023-05-29T06:57:43;16.40;66.80
37322;DHT22;23697;48.684;9.032;2023-05-29T07:00:11;16.60;66.70
37322;DHT22;23697;48.684;9.032;2023-05-29T07:02:40;16.70;66.80
37322;DHT22;23697;48.684;9.032;2023-05-29T07:05:07;16.90;65.90
37322;DHT22;23697;48.684;9.032;2023-05-29T07:07:33;17.10;64.00
37322;DHT22;23697;48.684;9.032;2023-05-29T07:10:00;17.30;64.90
37322;DHT22;23697;48.684;9.032;2023-05-29T07:12:28;17.40;62.20
37322;DHT22;23697;48.684;9.032;2023-05-29T07:14:55;17.60;60.70
37322;DHT22;23697;48.684;9.032;2023-05-29T07:17:21;17.60;61.60
37322;DHT22;23697;48.684;9.032;2023-05-29T07:19:48;17.80;60.30
37322;DHT22;23697;48.684;9.032;2023-05-29T07:22:15;17.90;59.50
37322;DHT22;23697;48.684;9.032;2023-05-29T07:24:41;18.10;59.50
37322;DHT22;23697;48.684;9.032;2023-05-29T07:27:08;18.10;59.10
37322;DHT22;23697;48.684;9.032;2023-05-29T07:29:36;18.20;59.00
37322;DHT22;23697;48.684;9.032;2023-05-29T07:32:03;18.40;57.60
37322;DHT22;23697;48.684;9.032;2023-05-29T07:34:29;18.50;58.30
37322;DHT22;23697;48.684;9.032;2023-05-29T07:36:57;18.60;57.10
37322;DHT22;23697;48.684;9.032;2023-05-29T07:39:25;18.60;56.60
37322;DHT22;23697;48.684;9.032;2023-05-29T07:41:52;18.60;55.90
37322;DHT22;23697;48.684;9.032;2023-05-29T07:44:18;18.70;56.90
37322;DHT22;23697;48.684;9.032;2023-05-29T07:46:47;18.90;58.70
37322;DHT22;23697;48.684;9.032;2023-05-29T07:49:13;19.00;54.60
37322;DHT22;23697;48.684;9.032;2023-05-29T07:51:40;19.10;53.60
37322;DHT22;23697;48.684;9.032;2023-05-29T07:54:07;19.10;54.60
37322;DHT22;23697;48.684;9.032;2023-05-29T07:56:34;19.20;55.20
37322;DHT22;23697;48.684;9.032;2023-05-29T07:59:00;19.30;53.60
37322;DHT22;23697;48.684;9.032;2023-05-29T08:01:28;19.40;54.60
37322;DHT22;23697;48.684;9.032;2023-05-29T08:03:56;19.50;53.90
37322;DHT22;23697;48.684;9.032;2023-05-29T08:06:23;19.60;53.20
37322;DHT22;23697;48.684;9.032;2023-05-29T08:08:51;19.60;52.20
37322;DHT22;23697;48.684;9.032;2023-05-29T08:11:18;19.70;51.80
37322;DHT22;23697;48.684;9.032;2023-05-29T08:13:45;19.80;52.50
37322;DHT22;23697;48.684;9.032;2023-05-29T08:16:11;19.80;51.20
37322;DHT22;23697;48.684;9.032;2023-05-29T08:18:39;19.80;52.50
37322;DHT22;23697;48.684;9.032;2023-05-29T08:21:07;20.10;52.40
37322;DHT22;23697;48.684;9.032;2023-05-29T08:23:40;20.20;51.30
37322;DHT22;23697;48.684;9.032;2023-05-29T08:26:07;20.30;51.70
37322;DHT22;23697;48.684;9.032;2023-05-29T08:28:35;20.50;50.80
37322;DHT22;23697;48.684;9.032;2023-05-29T08:31:02;20.50;50.60
37322;DHT22;23697;48.684;9.032;2023-05-29T08:36:44;20.60;51.10
37322;DHT22;23697;48.684;9.032;2023-05-29T08:39:43;20.80;52.00
37322;DHT22;23697;48.684;9.032;2023-05-29T08:42:18;21.00;50.80
37322;DHT22;23697;48.684;9.032;2023-05-29T08:45:04;21.10;49.90
37322;DHT22;23697;48.684;9.032;2023-05-29T08:47:38;21.20;49.90
37322;DHT22;23697;48.684;9.032;2023-05-29T11:39:18;24.30;39.00
37322;DHT22;23697;48.684;9.032;2023-05-29T11:42:41;24.40;38.80
37322;DHT22;23697;48.684;9.032;2023-05-29T11:44:51;24.60;39.80
37322;DHT22;23697;48.684;9.032;2023-05-29T11:50:23;25.10;38.10
37322;DHT22;23697;48.684;9.032;2023-05-29T11:55:43;25.30;37.90
37322;DHT22;23697;48.684;9.032;2023-05-29T11:59:06;25.30;37.90
37322;DHT22;23697;48.684;9.032;2023-05-29T12:06:17;25.40;36.50
37322;DHT22;23697;48.684;9.032;2023-05-29T12:08:02;25.10;37.10
37322;DHT22;23697;48.684;9.032;2023-05-29T12:16:39;25.10;37.40
37322;DHT22;23697;48.684;9.032;2023-05-29T12:19:26;25.30;35.60
37322;DHT22;23697;48.684;9.032;2023-05-29T12:22:11;25.30;36.60
37322;DHT22;23697;48.684;9.032;2023-05-29T12:24:38;25.20;34.90
37322;DHT22;23697;48.684;9.032;2023-05-29T12:30:57;25.10;37.00
37322;DHT22;23697;48.684;9.032;2023-05-29T12:33:29;25.20;35.80
37322;DHT22;23697;48.684;9.032;2023-05-29T12:36:06;25.20;35.60
37322;DHT22;23697;48.684;9.032;2023-05-29T12:38:45;25.10;34.20
37322;DHT22;23697;48.684;9.032;2023-05-29T12:41:21;25.10;36.00
37322;DHT22;23697;48.684;9.032;2023-05-29T12:44:09;25.20;34.20
37322;DHT22;23697;48.684;9.032;2023-05-29T12:46:55;25.20;33.10
37322;DHT22;23697;48.684;9.032;2023-05-29T12:53:01;25.40;34.40
37322;DHT22;23697;48.684;9.032;2023-05-29T12:55:41;25.60;34.90
37322;DHT22;23697;48.684;9.032;2023-05-29T12:58:24;25.60;33.00
37322;DHT22;23697;48.684;9.032;2023-05-29T13:00:54;25.50;33.50
37322;DHT22;23697;48.684;9.032;2023-05-29T13:04:24;25.60;33.50
37322;DHT22;23697;48.684;9.032;2023-05-29T13:06:36;25.60;33.00
37322;DHT22;23697;48.684;9.032;2023-05-29T13:09:12;25.80;32.90
37322;DHT22;23697;48.684;9.032;2023-05-29T13:11:39;25.70;34.20
37322;DHT22;23697;48.684;9.032;2023-05-29T13:14:08;25.60;33.20
37322;DHT22;23697;48.684;9.032;2023-05-29T13:16:45;25.60;33.70
37322;DHT22;23697;48.684;9.032;2023-05-29T13:19:12;25.70;34.10
37322;DHT22;23697;48.684;9.032;2023-05-29T13:21:48;25.80;33.30
37322;DHT22;23697;48.684;9.032;2023-05-29T13:24:16;25.70;33.50
37322;DHT22;23697;48.684;9.032;2023-05-29T13:26:45;25.90;31.00
37322;DHT22;23697;48.684;9.032;2023-05-29T13:29:21;25.80;31.80
37322;DHT22;23697;48.684;9.032;2023-05-29T13:31:48;25.90;32.40
37322;DHT22;23697;48.684;9.032;2023-05-29T13:34:22;26.10;34.20
37322;DHT22;23697;48.684;9.032;2023-05-29T13:37:02;26.20;32.20
37322;DHT22;23697;48.684;9.032;2023-05-29T13:39:41;26.30;32.80
37322;DHT22;23697;48.684;9.032;2023-05-29T13:42:13;26.40;30.20
37322;DHT22;23697;48.684;9.032;2023-05-29T13:44:43;26.30;32.10
37322;DHT22;23697;48.684;9.032;2023-05-29T13:47:16;26.40;31.30
37322;DHT22;23697;48.684;9.032;2023-05-29T13:49:46;26.50;29.90
37322;DHT22;23697;48.684;9.032;2023-05-29T13:52:19;26.30;31.40
37322;DHT22;23697;48.684;9.032;2023-05-29T13:54:49;26.20;30.20
37322;DHT22;23697;48.684;9.032;2023-05-29T13:57:16;26.10;31.00
37322;DHT22;23697;48.684;9.032;2023-05-29T13:59:43;26.10;29.90
37322;DHT22;23697;48.684;9.032;2023-05-29T14:02:10;26.10;29.90
37322;DHT22;23697;48.684;9.032;2023-05-29T14:04:38;26.00;30.70
37322;DHT22;23697;48.684;9.032;2023-05-29T14:07:07;26.00;29.60
37322;DHT22;23697;48.684;9.032;2023-05-29T14:09:37;26.00;30.20
37322;DHT22;23697;48.684;9.032;2023-05-29T14:12:06;25.80;30.30
37322;DHT22;23697;48.684;9.032;2023-05-29T14:14:33;25.90;31.10
37322;DHT22;23697;48.684;9.032;2023-05-29T14:17:00;26.00;30.70
37322;DHT22;23697;48.684;9.032;2023-05-29T14:19:30;26.10;30.00
37322;DHT22;23697;48.684;9.032;2023-05-29T14:21:57;26.20;32.40
37322;DHT22;23697;48.684;9.032;2023-05-29T14:24:27;26.20;31.40
37322;DHT22;23697;48.684;9.032;2023-05-29T14:27:13;26.30;29.70
37322;DHT22;23697;48.684;9.032;2023-05-29T14:29:48;26.10;30.90
37322;DHT22;23697;48.684;9.032;2023-05-29T14:32:27;26.10;30.50
37322;DHT22;23697;48.684;9.032;2023-05-29T14:35:16;26.20;30.20
37322;DHT22;23697;48.684;9.032;2023-05-29T14:38:00;26.10;28.20
37322;DHT22;23697;48.684;9.032;2023-05-29T14:40:33;26.10;31.30
37322;DHT22;23697;48.684;9.032;2023-05-29T14:43:07;26.10;29.80
37322;DHT22;23697;48.684;9.032;2023-05-29T14:45:35;26.30;31.70
37322;DHT22;23697;48.684;9.032;2023-05-29T14:48:05;26.40;28.60
37322;DHT22;23697;48.684;9.032;2023-05-29T14:50:44;26.40;29.50
37322;DHT22;23697;48.684;9.032;2023-05-29T14:53:21;26.20;30.50
37322;DHT22;23697;48.684;9.032;2023-05-29T14:55:56;26.00;30.40
37322;DHT22;23697;48.684;9.032;2023-05-29T14:58:35;25.90;30.60
37322;DHT22;23697;48.684;9.032;2023-05-29T15:01:10;26.00;30.00
37322;DHT22;23697;48.684;9.032;2023-05-29T15:03:59;26.00;30.60
37322;DHT22;23697;48.684;9.032;2023-05-29T15:09:17;25.90;31.10
37322;DHT22;23697;48.684;9.032;2023-05-29T15:12:13;25.90;30.70
37322;DHT22;23697;48.684;9.032;2023-05-29T15:15:01;25.70;29.60
37322;DHT22;23697;48.684;9.032;2023-05-29T15:17:30;25.60;30.50
37322;DHT22;23697;48.684;9.032;2023-05-29T15:19:58;25.50;30.60
37322;DHT22;23697;48.684;9.032;2023-05-29T15:22:30;25.60;31.40
37322;DHT22;23697;48.684;9.032;2023-05-29T15:25:03;25.70;33.00
37322;DHT22;23697;48.684;9.032;2023-05-29T15:27:39;25.90;30.70
37322;DHT22;23697;48.684;9.032;2023-05-29T15:30:13;25.80;31.40
37322;DHT22;23697;48.684;9.032;2023-05-29T15:32:41;25.80;30.10
37322;DHT22;23697;48.684;9.032;2023-05-29T15:35:31;25.60;29.40
37322;DHT22;23697;48.684;9.032;2023-05-29T15:38:31;25.50;31.60
37322;DHT22;23697;48.684;9.032;2023-05-29T15:40:59;25.40;29.80
37322;DHT22;23697;48.684;9.032;2023-05-29T15:43:26;25.30;30.90
37322;DHT22;23697;48.684;9.032;2023-05-29T15:45:54;25.30;30.60
37322;DHT22;23697;48.684;9.032;2023-05-29T15:48:24;25.30;30.30
37322;DHT22;23697;48.684;9.032;2023-05-29T15:50:51;25.30;32.70
37322;DHT22;23697;48.684;9.032;2023-05-29T15:53:31;25.60;32.20
37322;DHT22;23697;48.684;9.032;2023-05-29T15:55:59;25.60;32.50
37322;DHT22;23697;48.684;9.032;2023-05-29T15:58:28;25.60;32.70
37322;DHT22;23697;48.684;9.032;2023-05-29T16:00:56;25.70;34.80
37322;DHT22;23697;48.684;9.032;2023-05-29T16:06:30;25.80;32.40
37322;DHT22;23697;48.684;9.032;2023-05-29T16:08:58;25.70;32.10
37322;DHT22;23697;48.684;9.032;2023-05-29T16:11:30;25.70;35.50
37322;DHT22;23697;48.684;9.032;2023-05-29T16:14:07;25.70;32.70
37322;DHT22;23697;48.684;9.032;2023-05-29T16:16:38;25.60;32.80
37322;DHT22;23697;48.684;9.032;2023-05-29T16:19:06;25.30;33.50
37322;DHT22;23697;48.684;9.032;2023-05-29T16:21:42;25.20;32.90
37322;DHT22;23697;48.684;9.032;2023-05-29T16:24:12;25.20;33.40
37322;DHT22;23697;48.684;9.032;2023-05-29T16:26:42;25.20;34.00
37322;DHT22;23697;48.684;9.032;2023-05-29T16:29:17;25.20;35.20
37322;DHT22;23697;48.684;9.032;2023-05-29T16:32:09;25.10;34.90
37322;DHT22;23697;48.684;9.032;2023-05-29T16:34:36;25.10;35.90
37322;DHT22;23697;48.684;9.032;2023-05-29T16:39:41;24.80;34.60
37322;DHT22;23697;48.684;9.032;2023-05-29T16:42:08;24.70;36.20
37322;DHT22;23697;48.684;9.032;2023-05-29T16:44:36;24.50;35.10
37322;DHT22;23697;48.684;9.032;2023-05-29T16:47:03;24.30;35.30
37322;DHT22;23697;48.684;9.032;2023-05-29T16:49:31;24.10;34.90
37322;DHT22;23697;48.684;9.032;2023-05-29T16:51:58;23.90;35.10
37322;DHT22;23697;48.684;9.032;2023-05-29T16:54:25;23.70;34.90
37322;DHT22;23697;48.684;9.032;2023-05-29T16:56:51;23.60;35.50
37322;DHT22;23697;48.684;9.032;2023-05-29T16:59:18;23.60;35.90
37322;DHT22;23697;48.684;9.032;2023-05-29T17:01:45;23.60;35.70
37322;DHT22;23697;48.684;9.032;2023-05-29T17:04:11;23.50;35.80
37322;DHT22;23697;48.684;9.032;2023-05-29T17:06:39;23.40;35.80
37322;DHT22;23697;48.684;9.032;2023-05-29T17:09:07;23.30;36.40
37322;DHT22;23697;48.684;9.032;2023-05-29T17:11:34;23.20;35.90
37322;DHT22;23697;48.684;9.032;2023-05-29T17:14:01;23.20;36.60
37322;DHT22;23697;48.684;9.032;2023-05-29T17:16:27;23.10;35.90
37322;DHT22;23697;48.684;9.032;2023-05-29T17:18:54;23.10;36.90
37322;DHT22;23697;48.684;9.032;2023-05-29T17:21:21;23.00;35.70
37322;DHT22;23697;48.684;9.032;2023-05-29T17:23:49;23.00;36.20
37322;DHT22;23697;48.684;9.032;2023-05-29T17:26:20;22.90;35.70
37322;DHT22;23697;48.684;9.032;2023-05-29T17:28:47;22.90;35.70
37322;DHT22;23697;48.684;9.032;2023-05-29T17:31:14;22.90;35.80
37322;DHT22;23697;48.684;9.032;2023-05-29T17:33:41;22.80;36.50
37322;DHT22;23697;48.684;9.032;2023-05-29T17:36:08;22.80;37.00
37322;DHT22;23697;48.684;9.032;2023-05-29T17:38:36;22.70;36.90
37322;DHT22;23697;48.684;9.032;2023-05-29T17:41:04;22.70;36.90
37322;DHT22;23697;48.684;9.032;2023-05-29T17:43:34;22.60;37.20
37322;DHT22;23697;48.684;9.032;2023-05-29T17:46:23;22.60;37.60
37322;DHT22;23697;48.684;9.032;2023-05-29T17:48:52;22.60;35.90
37322;DHT22;23697;48.684;9.032;2023-05-29T17:51:19;22.50;36.10
37322;DHT22;23697;48.684;9.032;2023-05-29T17:53:50;22.50;36.80
37322;DHT22;23697;48.684;9.032;2023-05-29T17:56:19;22.40;38.10
37322;DHT22;23697;48.684;9.032;2023-05-29T17:58:47;22.40;44.30
37322;DHT22;23697;48.684;9.032;2023-05-29T18:01:16;22.20;40.50
37322;DHT22;23697;48.684;9.032;2023-05-29T19:31:50;19.60;42.80
37322;DHT22;23697;48.684;9.032;2023-05-29T19:34:40;19.60;44.10
37322;DHT22;23697;48.684;9.032;2023-05-29T19:38:08;19.60;43.50
37322;DHT22;23697;48.684;9.032;2023-05-29T19:40:35;19.60;44.50
37322;DHT22;23697;48.684;9.032;2023-05-29T19:43:09;19.50;43.40
37322;DHT22;23697;48.684;9.032;2023-05-29T19:45:42;19.40;43.80
37322;DHT22;23697;48.684;9.032;2023-05-29T19:48:21;19.40;43.10
37322;DHT22;23697;48.684;9.032;2023-05-29T19:50:55;19.30;44.60
37322;DHT22;23697;48.684;9.032;2023-05-29T19:53:23;19.20;44.70
37322;DHT22;23697;48.684;9.032;2023-05-29T19:55:55;19.20;45.30
37322;DHT22;23697;48.684;9.032;2023-05-29T19:58:32;19.10;45.10
37322;DHT22;23697;48.684;9.032;2023-05-29T20:01:00;19.10;45.40
37322;DHT22;23697;48.684;9.032;2023-05-29T20:03:28;19.00;45.60
37322;DHT22;23697;48.684;9.032;2023-05-29T20:06:05;18.90;46.10
37322;DHT22;23697;48.684;9.032;2023-05-29T20:08:34;18.90;45.10
37322;DHT22;23697;48.684;9.032;2023-05-29T20:11:01;18.90;45.40
37322;DHT22;23697;48.684;9.032;2023-05-29T20:13:35;18.90;46.40
37322;DHT22;23697;48.684;9.032;2023-05-29T20:19:06;18.70;46.50
37322;DHT22;23697;48.684;9.032;2023-05-29T20:21:36;18.60;46.20
37322;DHT22;23697;48.684;9.032;2023-05-29T20:24:10;18.60;46.80
37322;DHT22;23697;48.684;9.032;2023-05-29T20:26:40;18.60;46.30
37322;DHT22;23697;48.684;9.032;2023-05-29T20:29:07;18.50;46.00
37322;DHT22;23697;48.684;9.032;2023-05-29T20:31:34;18.50;46.10
37322;DHT22;23697;48.684;9.032;2023-05-29T20:34:01;18.40;47.10
37322;DHT22;23697;48.684;9.032;2023-05-29T20:36:29;18.40;45.90
37322;DHT22;23697;48.684;9.032;2023-05-29T20:39:01;18.40;45.60
37322;DHT22;23697;48.684;9.032;2023-05-29T20:41:34;18.30;48.00
37322;DHT22;23697;48.684;9.032;2023-05-29T20:47:01;18.20;46.50
37322;DHT22;23697;48.684;9.032;2023-05-29T20:49:32;18.10;46.60
37322;DHT22;23697;48.684;9.032;2023-05-29T20:52:06;18.10;47.60
37322;DHT22;23697;48.684;9.032;2023-05-29T20:54:34;18.10;46.50
37322;DHT22;23697;48.684;9.032;2023-05-29T20:57:17;18.10;47.80
37322;DHT22;23697;48.684;9.032;2023-05-29T20:59:50;18.10;48.50
37322;DHT22;23697;48.684;9.032;2023-05-29T21:02:18;18.10;47.20
37322;DHT22;23697;48.684;9.032;2023-05-29T21:04:49;18.00;47.80
37322;DHT22;23697;48.684;9.032;2023-05-29T21:07:27;17.90;47.50
37322;DHT22;23697;48.684;9.032;2023-05-29T21:10:00;17.80;48.40
37322;DHT22;23697;48.684;9.032;2023-05-29T21:12:30;17.80;49.20
37322;DHT22;23697;48.684;9.032;2023-05-29T21:14:59;17.80;49.70
37322;DHT22;23697;48.684;9.032;2023-05-29T21:17:30;17.80;49.50
37322;DHT22;23697;48.684;9.032;2023-05-29T21:20:09;17.80;51.00
37322;DHT22;23697;48.684;9.032;2023-05-29T21:22:38;17.70;50.00
37322;DHT22;23697;48.684;9.032;2023-05-29T21:25:10;17.60;49.60
37322;DHT22;23697;48.684;9.032;2023-05-29T21:27:37;17.60;50.30
37322;DHT22;23697;48.684;9.032;2023-05-29T21:30:27;17.50;50.20
37322;DHT22;23697;48.684;9.032;2023-05-29T21:32:54;17.40;50.30
37322;DHT22;23697;48.684;9.032;2023-05-29T21:35:26;17.40;51.50
37322;DHT22;23697;48.684;9.032;2023-05-29T21:38:03;17.30;51.40
37322;DHT22;23697;48.684;9.032;2023-05-29T21:40:30;17.20;51.20
37322;DHT22;23697;48.684;9.032;2023-05-29T21:43:05;17.10;51.60
37322;DHT22;23697;48.684;9.032;2023-05-29T21:45:35;17.10;50.80
37322;DHT22;23697;48.684;9.032;2023-05-29T21:48:10;17.00;51.30
37322;DHT22;23697;48.684;9.032;2023-05-29T21:50:42;17.00;51.70
37322;DHT22;23697;48.684;9.032;2023-05-29T22:05:08;16.80;54.00
37322;DHT22;23697;48.684;9.032;2023-05-29T22:17:09;16.40;54.50
37322;DHT22;23697;48.684;9.032;2023-05-29T22:23:01;16.20;55.10
37322;DHT22;23697;48.684;9.032;2023-05-29T22:28:46;16.10;55.80
37322;DHT22;23697;48.684;9.032;2023-05-29T22:31:34;16.10;56.00
37322;DHT22;23697;48.684;9.032;2023-05-29T22:37:07;16.10;56.30
37322;DHT22;23697;48.684;9.032;2023-05-29T22:39:48;16.00;56.10
37322;DHT22;23697;48.684;9.032;2023-05-29T22:42:27;16.00;56.00
37322;DHT22;23697;48.684;9.032;2023-05-29T22:51:50;16.10;56.30
37322;DHT22;23697;48.684;9.032;2023-05-29T22:54:33;16.10;57.20
37322;DHT22;23697;48.684;9.032;2023-05-29T23:39:01;15.70;56.80
37322;DHT22;23697;48.684;9.032;2023-05-29T23:47:29;15.70;57.30
